Time;durP1;ratioP1;P1;durP2;ratioP2;P2;SDS_P1;SDS_P2;PMS_P1;PMS_P2;Temp;Humidity;BMP_temperature;BMP_pressure;BME280_temperature;BME280_humidity;BME280_pressure;Samples;Min_cycle;Max_cycle;Signal;HPM_P1;HPM_P2
2022/05/02 00:00:40;;;;;;;49.10;34.92;;;;;;;9.98;100.00;96479.19;5065426;28;20079;-55
2022/05/02 00:03:09;;;;;;;46.88;34.30;;;;;;;9.88;100.00;96473.09;5065442;28;20452;-50
2022/05/02 00:05:40;;;;;;;52.97;34.72;;;;;;;9.75;100.00;96469.94;5063116;28;20530;-50
2022/05/02 00:08:08;;;;;;;45.33;32.38;;;;;;;10.06;100.00;96467.13;5056699;28;21441;-54
2022/05/02 00:10:37;;;;;;;44.97;31.33;;;;;;;10.09;100.00;96464.22;5057671;28;20456;-56
2022/05/02 00:13:09;;;;;;;43.50;29.98;;;;;;;9.98;100.00;96454.66;5059712;28;20065;-55
2022/05/02 00:15:38;;;;;;;40.90;30.25;;;;;;;9.66;100.00;96453.16;5062869;28;20068;-56
2022/05/02 00:18:08;;;;;;;43.63;31.80;;;;;;;9.82;100.00;96457.03;5063594;28;20079;-51
2022/05/02 00:20:39;;;;;;;43.50;31.50;;;;;;;9.62;100.00;96451.75;5064722;28;20083;-54
2022/05/02 00:23:08;;;;;;;43.33;30.63;;;;;;;9.25;100.00;96452.44;5065449;28;20677;-51
2022/05/02 00:25:37;;;;;;;40.95;30.10;;;;;;;9.23;100.00;96449.13;5062085;28;20064;-48
2022/05/02 00:28:06;;;;;;;44.13;31.67;;;;;;;9.50;100.00;96451.09;5062785;28;20060;-47
2022/05/02 00:30:34;;;;;;;48.45;32.83;;;;;;;9.46;100.00;96440.94;5063106;28;20067;-50
2022/05/02 00:33:03;;;;;;;41.53;30.55;;;;;;;8.97;100.00;96454.03;5066039;28;20458;-47
2022/05/02 00:35:32;;;;;;;43.28;30.42;;;;;;;8.91;100.00;96446.72;5064554;28;21522;-53
2022/05/02 00:38:02;;;;;;;43.88;30.65;;;;;;;9.03;100.00;96453.50;5065260;28;20064;-54
2022/05/02 00:40:30;;;;;;;42.37;29.93;;;;;;;9.06;100.00;96449.78;5057492;28;20064;-49
2022/05/02 00:42:58;;;;;;;41.30;28.88;;;;;;;8.68;100.00;96456.59;5060126;28;20506;-47
2022/05/02 00:45:27;;;;;;;38.05;26.77;;;;;;;8.52;100.00;96451.81;5060601;28;20068;-53
2022/05/02 00:47:57;;;;;;;35.55;25.90;;;;;;;8.56;100.00;96455.00;5065607;28;20076;-57
2022/05/02 00:50:33;;;;;;;34.20;26.33;;;;;;;8.84;100.00;96450.00;5063380;28;20068;-52
2022/05/02 00:53:05;;;;;;;37.70;26.77;;;;;;;8.92;100.00;96447.53;5061559;28;20079;-53
2022/05/02 00:55:33;;;;;;;32.65;25.30;;;;;;;8.67;100.00;96449.69;5065301;28;20060;-55
2022/05/02 00:58:02;;;;;;;32.80;25.45;;;;;;;8.76;100.00;96448.88;5061248;28;20506;-56
2022/05/02 01:00:32;;;;;;;36.22;26.83;;;;;;;9.08;100.00;96439.94;5064683;28;20078;-48
2022/05/02 01:03:01;;;;;;;35.55;26.25;;;;;;;8.83;100.00;96438.66;5056578;28;20067;-50
2022/05/02 01:05:30;;;;;;;32.78;26.92;;;;;;;9.10;100.00;96424.88;5060078;28;20068;-53
2022/05/02 01:07:57;;;;;;;35.40;26.27;;;;;;;9.09;100.00;96433.72;5064312;28;20044;-50
2022/05/02 01:10:27;;;;;;;35.38;27.23;;;;;;;8.87;100.00;96431.31;5063999;28;20065;-52
2022/05/02 01:12:56;;;;;;;32.43;25.00;;;;;;;8.84;100.00;96428.94;5060311;28;20538;-49
2022/05/02 01:15:25;;;;;;;30.67;24.17;;;;;;;9.00;100.00;96424.84;5063874;28;20447;-48
2022/05/02 01:17:53;;;;;;;28.88;22.77;;;;;;;8.79;100.00;96421.47;5065860;28;20032;-49
2022/05/02 01:20:23;;;;;;;28.13;21.50;;;;;;;8.70;100.00;96425.72;5060082;28;20067;-52
2022/05/02 01:22:51;;;;;;;26.27;22.23;;;;;;;8.53;100.00;96424.59;5065107;28;20458;-51
2022/05/02 01:25:20;;;;;;;26.15;21.50;;;;;;;8.54;100.00;96426.25;5063568;28;20072;-47
2022/05/02 01:27:48;;;;;;;28.38;22.88;;;;;;;8.37;100.00;96431.25;5054794;28;20078;-52
2022/05/02 01:30:16;;;;;;;25.70;22.35;;;;;;;8.23;100.00;96419.31;5062500;28;20065;-52
2022/05/02 01:32:45;;;;;;;26.33;21.40;;;;;;;8.35;100.00;96417.41;5065386;28;20515;-47
2022/05/02 01:35:13;;;;;;;28.30;22.38;;;;;;;8.25;100.00;96409.50;5060555;28;20068;-47
2022/05/02 01:37:42;;;;;;;60.90;25.48;;;;;;;7.78;100.00;96420.44;5061949;28;20079;-49
2022/05/02 01:40:12;;;;;;;71.18;26.55;;;;;;;8.12;100.00;96416.75;5065516;28;20067;-48
2022/05/02 01:42:40;;;;;;;58.45;26.17;;;;;;;7.75;100.00;96406.75;5060669;28;20092;-51
2022/05/02 01:45:09;;;;;;;41.72;25.45;;;;;;;7.81;100.00;96406.19;5064558;28;20076;-50
2022/05/02 01:47:37;;;;;;;51.78;25.30;;;;;;;7.62;100.00;96414.78;5059241;28;20076;-48
2022/05/02 01:50:06;;;;;;;46.85;27.42;;;;;;;7.77;100.00;96415.31;5062201;28;20571;-51
2022/05/02 01:52:35;;;;;;;104.00;28.08;;;;;;;7.32;100.00;96413.72;5064305;28;20079;-50
2022/05/02 01:55:05;;;;;;;106.18;27.88;;;;;;;7.23;100.00;96417.13;5063479;28;20068;-52
2022/05/02 01:57:33;;;;;;;108.47;27.20;;;;;;;7.56;100.00;96412.69;5064368;28;20477;-49
2022/05/02 02:00:01;;;;;;;68.35;26.70;;;;;;;7.27;100.00;96408.03;5061267;28;20072;-54
2022/05/02 02:02:30;;;;;;;67.60;25.73;;;;;;;7.43;100.00;96396.28;5064338;28;21360;-52
2022/05/02 02:07:45;;;;;;;52.90;25.92;;;;;;;7.29;100.00;96397.41;5064781;28;20049;-50
2022/05/02 02:10:14;;;;;;;49.40;26.00;;;;;;;7.57;100.00;96401.22;5058496;28;20455;-56
2022/05/02 02:12:43;;;;;;;61.30;25.95;;;;;;;7.14;100.00;96402.13;5063502;28;20068;-51
2022/05/02 02:15:14;;;;;;;96.72;27.08;;;;;;;7.40;100.00;96396.53;5053849;28;20077;-50
2022/05/02 02:17:43;;;;;;;132.77;29.45;;;;;;;7.31;100.00;96401.59;5064960;28;20033;-51
2022/05/02 02:20:12;;;;;;;163.55;31.00;;;;;;;7.24;100.00;96395.19;5064735;28;20056;-53
2022/05/02 02:22:40;;;;;;;111.70;29.80;;;;;;;7.43;100.00;96401.53;5064580;28;20068;-49
2022/05/02 02:25:09;;;;;;;85.30;31.30;;;;;;;7.31;100.00;96398.13;5067562;28;20462;-50
2022/05/02 02:27:39;;;;;;;113.53;31.35;;;;;;;6.72;100.00;96402.00;5066481;28;20071;-49
2022/05/02 02:30:09;;;;;;;165.00;30.77;;;;;;;6.32;100.00;96410.38;5067050;28;20087;-47
2022/05/02 02:32:37;;;;;;;127.47;29.53;;;;;;;6.30;100.00;96414.09;5067574;28;20064;-46
2022/05/02 02:35:06;;;;;;;131.60;27.65;;;;;;;6.04;100.00;96422.16;5066786;28;20507;-46
2022/05/02 02:37:35;;;;;;;96.25;27.33;;;;;;;6.16;100.00;96407.31;5065090;28;20064;-49
2022/05/02 02:40:04;;;;;;;81.70;26.55;;;;;;;6.17;100.00;96411.59;5063321;28;20636;-50
2022/05/02 02:42:32;;;;;;;73.32;24.42;;;;;;;5.93;100.00;96414.31;5058001;28;20056;-46
2022/05/02 02:45:02;;;;;;;53.53;22.40;;;;;;;5.84;100.00;96415.78;5065500;28;20110;-49
2022/05/02 02:47:30;;;;;;;55.85;23.67;;;;;;;6.21;100.00;96418.25;5066031;28;20087;-50
2022/05/02 02:49:58;;;;;;;45.53;21.75;;;;;;;6.57;100.00;96411.06;5064701;28;20076;-46
2022/05/02 02:52:27;;;;;;;44.67;23.73;;;;;;;6.42;100.00;96418.34;5062304;28;20468;-50
2022/05/02 02:54:55;;;;;;;89.05;22.67;;;;;;;6.39;100.00;96410.72;5062645;28;20296;-46
2022/05/02 02:57:24;;;;;;;119.70;23.27;;;;;;;6.46;100.00;96414.53;5064161;28;20519;-53
2022/05/02 02:59:52;;;;;;;100.00;23.75;;;;;;;6.63;100.00;96408.81;5061340;28;20078;-55
2022/05/02 03:02:22;;;;;;;86.57;22.45;;;;;;;6.79;100.00;96399.75;5061600;28;20068;-49
2022/05/02 03:07:36;;;;;;;93.20;22.65;;;;;;;6.12;100.00;96404.06;5064327;28;20071;-52
2022/05/02 03:10:05;;;;;;;82.75;20.48;;;;;;;6.07;100.00;96413.25;5061948;28;20082;-55
2022/05/02 03:12:33;;;;;;;97.47;21.25;;;;;;;6.10;100.00;96413.84;5061932;28;20076;-50
2022/05/02 03:15:02;;;;;;;78.70;21.17;;;;;;;6.52;100.00;96408.00;5062716;28;20087;-57
2022/05/02 03:17:32;;;;;;;92.05;21.45;;;;;;;6.61;100.00;96405.50;5063644;28;20072;-50
2022/05/02 03:20:00;;;;;;;160.65;25.92;;;;;;;6.63;100.00;96403.56;5064647;28;20415;-55
2022/05/02 03:22:28;;;;;;;102.47;23.77;;;;;;;6.77;100.00;96410.31;5066157;28;20067;-53
2022/05/02 03:24:57;;;;;;;128.20;26.48;;;;;;;6.96;100.00;96411.50;5064430;28;20487;-50
2022/05/02 03:27:25;;;;;;;103.40;25.17;;;;;;;7.16;100.00;96410.72;5064344;28;20041;-56
2022/05/02 03:30:18;;;;;;;69.85;21.48;;;;;;;7.22;100.00;96407.56;5062476;28;20064;-53
2022/05/02 03:32:54;;;;;;;116.68;22.65;;;;;;;7.04;100.00;96399.41;5063536;28;20437;-50
2022/05/02 03:35:22;;;;;;;85.75;22.02;;;;;;;6.91;100.00;96396.13;5066244;28;20064;-52
2022/05/02 03:37:50;;;;;;;70.32;21.05;;;;;;;7.10;100.00;96400.72;5065424;28;20131;-49
2022/05/02 03:40:19;;;;;;;103.00;21.92;;;;;;;6.80;100.00;96402.22;5064078;28;20415;-46
2022/05/02 03:42:47;;;;;;;61.30;20.27;;;;;;;7.07;100.00;96396.56;5068449;28;20320;-49
2022/05/02 03:45:16;;;;;;;74.97;20.90;;;;;;;7.02;100.00;96403.97;5065134;28;20075;-53
2022/05/02 03:47:44;;;;;;;83.57;20.58;;;;;;;7.07;100.00;96399.16;5064780;28;20079;-47
2022/05/02 03:50:14;;;;;;;52.83;20.80;;;;;;;7.10;100.00;96405.97;5065548;28;20071;-51
2022/05/02 03:52:42;;;;;;;41.60;19.77;;;;;;;7.25;100.00;96401.25;5068743;28;20087;-51
2022/05/02 03:55:10;;;;;;;66.18;20.30;;;;;;;7.34;100.00;96403.97;5059969;28;20053;-57
2022/05/02 03:57:39;;;;;;;50.60;20.80;;;;;;;7.28;100.00;96395.75;5063037;28;20596;-48
2022/05/02 04:00:08;;;;;;;46.70;22.05;;;;;;;6.99;100.00;96400.75;5059638;28;20082;-49
2022/05/02 04:02:37;;;;;;;31.63;22.40;;;;;;;7.24;100.00;96394.34;5061502;28;20071;-47
2022/05/02 04:05:06;;;;;;;28.75;22.20;;;;;;;7.56;100.00;96395.13;5063491;28;20068;-50
2022/05/02 04:07:35;;;;;;;36.20;23.02;;;;;;;7.42;100.00;96386.75;5062801;28;20052;-49
2022/05/02 04:10:04;;;;;;;58.63;23.02;;;;;;;7.51;100.00;96388.63;5062378;28;20498;-55
2022/05/02 04:12:36;;;;;;;39.50;22.27;;;;;;;7.74;100.00;96384.06;5059347;28;20065;-50
2022/05/02 04:15:05;;;;;;;46.05;20.00;;;;;;;7.16;100.00;96392.34;5061508;28;20502;-45
2022/05/02 04:17:33;;;;;;;47.85;21.80;;;;;;;7.51;100.00;96389.44;5057977;28;20094;-47
2022/05/02 04:20:02;;;;;;;28.95;20.42;;;;;;;7.66;100.00;96389.13;5062159;28;20060;-52
2022/05/02 04:22:30;;;;;;;26.25;21.33;;;;;;;7.55;100.00;96390.03;5059790;28;20803;-50
2022/05/02 04:25:00;;;;;;;25.40;20.98;;;;;;;7.77;100.00;96386.44;5060291;28;20060;-49
2022/05/02 04:27:28;;;;;;;24.70;20.92;;;;;;;8.08;100.00;96392.53;5061047;28;20071;-53
2022/05/02 04:29:57;;;;;;;25.42;20.60;;;;;;;8.12;100.00;96385.22;5056174;28;20475;-53
2022/05/02 04:32:25;;;;;;;26.23;20.65;;;;;;;8.12;100.00;96386.09;5061346;28;20060;-52
2022/05/02 04:34:55;;;;;;;22.92;19.75;;;;;;;8.33;100.00;96375.53;5055670;28;20076;-52
2022/05/02 04:37:24;;;;;;;20.80;18.48;;;;;;;8.75;100.00;96372.75;5068971;28;20060;-49
2022/05/02 04:39:52;;;;;;;18.95;16.80;;;;;;;9.11;100.00;96370.44;5062999;28;20064;-49
2022/05/02 04:42:22;;;;;;;19.80;17.70;;;;;;;9.28;100.00;96369.75;5063715;28;20135;-46
2022/05/02 04:44:50;;;;;;;19.67;17.53;;;;;;;9.55;100.00;96370.84;5054486;28;20084;-51
2022/05/02 04:47:18;;;;;;;20.00;17.90;;;;;;;9.69;100.00;96365.16;5055501;28;20479;-47
2022/05/02 04:49:53;;;;;;;19.75;17.75;;;;;;;9.90;100.00;96371.06;5061503;28;20527;-54
2022/05/02 04:52:21;;;;;;;19.17;16.63;;;;;;;9.54;100.00;96371.84;5068455;28;21230;-52
2022/05/02 04:54:49;;;;;;;19.60;17.50;;;;;;;9.44;100.00;96375.28;5066025;28;20073;-48
2022/05/02 04:57:18;;;;;;;20.30;16.75;;;;;;;9.81;100.00;96373.75;5062007;28;20089;-51
2022/05/02 04:59:47;;;;;;;20.63;17.70;;;;;;;9.65;100.00;96376.94;5072734;28;20087;-52
2022/05/02 05:02:15;;;;;;;19.63;17.60;;;;;;;9.88;100.00;96378.28;5057948;28;20069;-49
2022/05/02 05:04:44;;;;;;;22.33;19.38;;;;;;;9.32;100.00;96386.94;5063636;28;20071;-51
2022/05/02 05:07:13;;;;;;;25.70;20.55;;;;;;;9.79;100.00;96378.31;5059763;28;20064;-50
2022/05/02 05:09:41;;;;;;;23.52;19.90;;;;;;;9.51;100.00;96375.56;5070640;28;20476;-54
2022/05/02 05:12:13;;;;;;;24.23;20.35;;;;;;;9.89;100.00;96364.13;5069322;28;20084;-55
2022/05/02 05:17:47;;;;;;;24.98;19.85;;;;;;;10.21;100.00;96362.91;5054909;28;20526;-51
2022/05/02 05:20:21;;;;;;;22.95;19.50;;;;;;;10.45;100.00;96351.88;5055015;28;20706;-51
2022/05/02 05:22:58;;;;;;;25.70;20.40;;;;;;;10.84;100.00;96352.50;5061182;28;20176;-56
2022/05/02 05:25:43;;;;;;;23.83;19.80;;;;;;;11.24;100.00;96348.59;5063088;28;20064;-53
2022/05/02 05:28:24;;;;;;;27.02;22.17;;;;;;;11.44;100.00;96351.91;5070617;28;20155;-55
2022/05/02 05:31:02;;;;;;;28.05;21.65;;;;;;;11.81;100.00;96343.78;5058895;28;20534;-57
2022/05/02 05:33:37;;;;;;;27.33;21.67;;;;;;;11.32;100.00;96353.97;5067769;28;20064;-56
2022/05/02 05:36:20;;;;;;;27.98;22.92;;;;;;;12.00;100.00;96342.75;5068081;28;20460;-51
2022/05/02 05:38:53;;;;;;;30.35;23.02;;;;;;;12.34;100.00;96342.75;5062516;28;20095;-53
2022/05/02 05:41:30;;;;;;;29.23;24.50;;;;;;;12.54;100.00;96332.78;5055756;28;20084;-50
2022/05/02 05:44:08;;;;;;;25.67;21.92;;;;;;;12.71;100.00;96338.94;5063707;28;20067;-55
2022/05/02 05:46:48;;;;;;;29.63;23.95;;;;;;;12.65;100.00;96336.13;5061137;28;20076;-56
2022/05/02 05:49:21;;;;;;;31.17;25.33;;;;;;;12.81;100.00;96336.16;5055943;28;20072;-57
2022/05/02 05:52:01;;;;;;;34.30;27.83;;;;;;;12.58;100.00;96331.47;5070857;28;20482;-56
2022/05/02 05:54:41;;;;;;;38.38;29.92;;;;;;;12.32;100.00;96336.00;5063216;28;20810;-52
2022/05/02 05:57:19;;;;;;;35.30;28.33;;;;;;;12.51;100.00;96341.03;5067210;28;20741;-56
2022/05/02 06:00:05;;;;;;;37.22;30.98;;;;;;;13.07;100.00;96342.19;5071741;28;20075;-53
2022/05/02 06:02:49;;;;;;;37.30;30.30;;;;;;;12.72;100.00;96351.19;5064563;28;20536;-51
2022/05/02 06:05:18;;;;;;;41.55;30.83;;;;;;;13.85;100.00;96342.72;5069989;28;20960;-53
2022/05/02 06:07:47;;;;;;;37.55;30.35;;;;;;;13.71;100.00;96345.06;5066995;28;20079;-53
2022/05/02 06:10:16;;;;;;;37.97;30.42;;;;;;;13.31;100.00;96343.22;5080165;28;20526;-54
2022/05/02 06:12:46;;;;;;;41.10;32.78;;;;;;;13.11;100.00;96345.34;5070000;28;20044;-55
2022/05/02 06:20:53;;;;;;;45.30;34.07;;;;;;;12.80;100.00;96353.00;5065814;28;21536;-56
2022/05/02 06:23:21;;;;;;;41.42;33.05;;;;;;;12.08;100.00;96361.31;5069242;28;20588;-57
2022/05/02 06:25:50;;;;;;;38.78;31.27;;;;;;;12.58;100.00;96355.25;5066772;28;20064;-54
2022/05/02 06:28:21;;;;;;;40.08;31.23;;;;;;;13.41;100.00;96353.66;5076101;28;20079;-50
2022/05/02 06:30:50;;;;;;;38.22;30.88;;;;;;;13.06;100.00;96352.91;5067657;28;20057;-54
2022/05/02 06:33:21;;;;;;;41.00;30.90;;;;;;;13.34;100.00;96353.50;5075204;28;20135;-49
2022/05/02 06:35:58;;;;;;;37.83;30.85;;;;;;;13.91;100.00;96348.19;5061789;28;20084;-52
2022/05/02 06:38:41;;;;;;;38.88;30.80;;;;;;;13.83;100.00;96355.31;5055441;28;20065;-57
2022/05/02 06:41:21;;;;;;;38.72;31.00;;;;;;;13.86;100.00;96361.09;5058024;28;20064;-57
2022/05/02 06:43:54;;;;;;;36.72;30.35;;;;;;;14.50;100.00;96347.88;5060943;28;20467;-50
2022/05/02 06:46:29;;;;;;;38.92;30.90;;;;;;;13.71;100.00;96355.66;5059055;28;20057;-51
2022/05/02 06:49:03;;;;;;;40.97;30.75;;;;;;;13.83;100.00;96356.13;5061588;28;20083;-50
2022/05/02 06:51:32;;;;;;;46.78;34.90;;;;;;;13.91;100.00;96356.13;5070780;28;20071;-50
2022/05/02 06:54:25;;;;;;;44.70;34.92;;;;;;;14.77;100.00;96345.78;5053924;28;20115;-55
2022/05/02 06:56:57;;;;;;;46.55;34.75;;;;;;;15.33;100.00;96341.94;5069173;28;20153;-52
2022/05/02 06:59:36;;;;;;;43.50;34.83;;;;;;;14.85;100.00;96346.56;5068793;28;20443;-52
2022/05/02 07:02:21;;;;;;;44.42;33.13;;;;;;;15.55;100.00;96348.25;5055196;28;20065;-53
2022/05/02 07:04:52;;;;;;;46.17;34.10;;;;;;;15.92;100.00;96338.66;5059628;28;20060;-51
2022/05/02 07:07:38;;;;;;;46.75;34.67;;;;;;;16.10;100.00;96333.00;5073020;28;20391;-54
2022/05/02 07:10:09;;;;;;;52.17;37.35;;;;;;;16.48;100.00;96335.56;5067438;28;20060;-48
2022/05/02 07:12:41;;;;;;;45.03;34.13;;;;;;;16.74;100.00;96337.75;5070316;28;20069;-55
2022/05/02 07:15:13;;;;;;;49.40;36.08;;;;;;;16.63;100.00;96333.75;5073317;28;20953;-54
2022/05/02 07:18:09;;;;;;;46.60;34.65;;;;;;;17.07;100.00;96331.03;5070679;28;20581;-57
2022/05/02 07:20:54;;;;;;;48.10;37.05;;;;;;;16.73;100.00;96325.47;5027887;28;21541;-52
2022/05/02 07:23:50;;;;;;;51.17;35.75;;;;;;;17.16;100.00;96325.56;5067277;28;20071;-53
2022/05/02 07:26:20;;;;;;;46.47;35.38;;;;;;;16.97;100.00;96327.00;5063756;28;20063;-54
2022/05/02 07:28:50;;;;;;;45.28;34.53;;;;;;;16.94;100.00;96330.06;5071881;28;20131;-54
2022/05/02 07:31:20;;;;;;;46.80;35.28;;;;;;;16.75;100.00;96324.28;5063509;28;20075;-54
2022/05/02 07:33:50;;;;;;;44.58;35.05;;;;;;;16.74;100.00;96324.44;5061912;28;20064;-53
2022/05/02 07:36:22;;;;;;;45.78;36.20;;;;;;;16.64;100.00;96331.91;5058166;28;20084;-49
2022/05/02 07:38:53;;;;;;;49.75;37.67;;;;;;;15.85;100.00;96343.06;5067372;28;20088;-51
2022/05/02 07:41:25;;;;;;;48.97;38.17;;;;;;;16.19;100.00;96331.09;5058848;28;20080;-53
2022/05/02 07:43:58;;;;;;;48.22;38.63;;;;;;;16.50;100.00;96333.56;5063181;28;20507;-50
2022/05/02 07:46:29;;;;;;;48.78;37.55;;;;;;;16.71;100.00;96322.16;5059846;28;20072;-53
2022/05/02 07:48:58;;;;;;;50.47;39.25;;;;;;;16.71;100.00;96317.66;5068874;28;20056;-57
2022/05/02 07:51:29;;;;;;;48.00;38.58;;;;;;;17.47;100.00;96317.25;5058968;28;20471;-54
2022/05/02 07:53:58;;;;;;;45.78;36.95;;;;;;;17.06;100.00;96320.53;5056366;28;20550;-51
2022/05/02 07:56:27;;;;;;;47.13;37.15;;;;;;;16.97;100.00;96319.03;5058008;28;20075;-53
2022/05/02 07:58:57;;;;;;;51.33;39.05;;;;;;;17.12;100.00;96310.97;5064235;28;20060;-53
2022/05/02 08:01:26;;;;;;;46.38;36.90;;;;;;;17.42;100.00;96306.34;5063315;28;20059;-53
2022/05/02 08:03:55;;;;;;;44.25;36.80;;;;;;;17.33;100.00;96303.81;5066290;28;20454;-55
2022/05/02 08:06:36;;;;;;;45.22;36.10;;;;;;;17.43;100.00;96311.47;5060253;28;20529;-55
2022/05/02 08:09:27;;;;;;;43.20;35.20;;;;;;;17.44;100.00;96304.31;5057132;28;20080;-50
2022/05/02 08:12:00;;;;;;;43.42;34.42;;;;;;;17.25;100.00;96311.13;5069905;28;20514;-55
2022/05/02 08:14:34;;;;;;;41.20;34.30;;;;;;;17.68;100.00;96314.56;5068781;28;20068;-54
2022/05/02 08:17:04;;;;;;;41.42;34.00;;;;;;;17.66;100.00;96321.94;5063635;28;20105;-53
2022/05/02 08:19:42;;;;;;;41.85;32.95;;;;;;;17.03;100.00;96310.25;5068312;28;20464;-52
2022/05/02 08:28:18;;;;;;;37.45;29.02;;;;;;;18.43;100.00;96315.72;5032743;28;20072;-58
2022/05/02 08:31:14;;;;;;;34.38;28.90;;;;;;;18.30;100.00;96312.16;5026426;28;20076;-54
2022/05/02 08:33:52;;;;;;;34.08;28.13;;;;;;;18.89;100.00;96304.47;5048003;28;20124;-54
2022/05/02 08:36:29;;;;;;;33.80;27.88;;;;;;;17.35;100.00;96318.81;5055918;28;20088;-51
2022/05/02 08:39:03;;;;;;;30.60;25.67;;;;;;;17.53;100.00;96309.31;5065921;28;20087;-52
2022/05/02 08:42:04;;;;;;;24.88;21.55;;;;;;;17.95;100.00;96309.47;5078744;28;20480;-54
2022/05/02 08:44:57;;;;;;;23.40;20.38;;;;;;;18.22;100.00;96305.13;5064480;28;20068;-51
2022/05/02 08:47:46;;;;;;;23.58;20.25;;;;;;;17.89;100.00;96299.56;5057946;28;20060;-54
2022/05/02 08:50:23;;;;;;;21.08;18.83;;;;;;;18.21;100.00;96303.50;5062261;28;20079;-55
2022/05/02 08:53:28;;;;;;;23.10;19.60;;;;;;;18.57;100.00;96292.59;5064850;28;20873;-57
2022/05/02 08:56:16;;;;;;;23.88;21.27;;;;;;;17.99;100.00;96305.41;5041818;28;20522;-52
2022/05/02 08:59:13;;;;;;;22.70;20.17;;;;;;;18.04;100.00;96294.97;5062367;28;20072;-55
2022/05/02 09:02:12;;;;;;;21.90;18.50;;;;;;;18.16;100.00;96295.25;5065198;28;20085;-52
2022/05/02 09:05:21;;;;;;;19.05;17.05;;;;;;;19.28;100.00;96299.44;5067925;28;20083;-54
2022/05/02 09:08:07;;;;;;;17.95;16.05;;;;;;;19.05;100.00;96299.78;5032938;28;20072;-52
2022/05/02 09:10:49;;;;;;;19.30;17.30;;;;;;;18.78;100.00;96306.88;5055114;28;20068;-56
2022/05/02 09:13:49;;;;;;;19.70;17.60;;;;;;;20.25;100.00;96298.00;5064129;28;20116;-56
2022/05/02 09:16:57;;;;;;;18.70;16.80;;;;;;;19.73;100.00;96305.06;5062435;28;20064;-52
2022/05/02 09:19:58;;;;;;;19.58;17.42;;;;;;;18.32;100.00;96302.94;5061982;28;20069;-53
2022/05/02 09:22:46;;;;;;;21.30;19.05;;;;;;;18.68;100.00;96313.38;5066322;28;20064;-55
2022/05/02 09:25:29;;;;;;;23.23;19.60;;;;;;;19.48;100.00;96304.78;5060495;28;20061;-56
2022/05/02 09:28:03;;;;;;;23.92;21.33;;;;;;;18.77;100.00;96305.25;5073325;28;20060;-55
2022/05/02 09:31:17;;;;;;;23.90;21.38;;;;;;;18.99;100.00;96301.41;5072589;28;20072;-55
2022/05/02 09:33:50;;;;;;;20.45;18.33;;;;;;;18.97;100.00;96301.59;5066188;28;20631;-58
2022/05/02 09:36:25;;;;;;;21.38;18.83;;;;;;;19.16;100.00;96302.66;5059283;28;20558;-54
2022/05/02 09:39:04;;;;;;;21.58;19.27;;;;;;;18.78;100.00;96298.88;5063710;28;20085;-58
2022/05/02 09:42:13;;;;;;;21.83;19.52;;;;;;;19.95;100.00;96293.09;5065236;28;20504;-51
2022/05/02 09:50:57;;;;;;;14.98;13.45;;;;;;;19.20;100.00;96290.56;5057076;28;20482;-56
2022/05/02 09:53:35;;;;;;;17.08;15.27;;;;;;;18.82;100.00;96287.56;5058532;28;20056;-55
2022/05/02 09:58:55;;;;;;;15.35;13.85;;;;;;;19.16;100.00;96286.63;5074993;28;20070;-52
2022/05/02 10:01:27;;;;;;;15.38;13.77;;;;;;;20.19;100.00;96266.69;5058430;28;20530;-54
2022/05/02 10:04:18;;;;;;;15.85;14.25;;;;;;;20.73;100.00;96268.19;5064888;28;20056;-54
2022/05/02 10:06:50;;;;;;;14.35;12.95;;;;;;;20.76;100.00;96273.94;5064217;28;20076;-59
2022/05/02 10:09:31;;;;;;;16.23;14.63;;;;;;;20.19;100.00;96267.50;5061172;28;20471;-53
2022/05/02 10:12:03;;;;;;;;;;;;;;;21.20;100.00;96258.06;5059269;28;20059;-56
2022/05/02 10:14:51;;;;;;;14.90;13.40;;;;;;;19.73;100.00;96275.63;5070934;28;19951;-54
2022/05/02 10:17:38;;;;;;;16.13;13.32;;;;;;;19.09;100.00;96272.44;5067311;28;20534;-58
2022/05/02 10:20:16;;;;;;;14.88;13.43;;;;;;;19.06;100.00;96274.69;5056794;28;20071;-50
2022/05/02 10:22:51;;;;;;;14.75;13.25;;;;;;;18.84;100.00;96274.03;5070728;28;20541;-51
2022/05/02 10:25:21;;;;;;;15.00;13.52;;;;;;;19.69;100.00;96269.84;5067794;28;20064;-51
2022/05/02 10:28:04;;;;;;;15.43;13.80;;;;;;;19.39;100.00;96269.41;5071676;28;20044;-53
2022/05/02 10:30:43;;;;;;;16.88;14.35;;;;;;;18.58;100.00;96264.88;5063879;28;20064;-47
2022/05/02 10:33:15;;;;;;;15.98;14.38;;;;;;;19.26;100.00;96272.06;5053064;28;20111;-49
2022/05/02 10:35:47;;;;;;;16.02;14.40;;;;;;;19.82;100.00;96269.84;5059303;28;20083;-49
2022/05/02 10:38:21;;;;;;;16.25;14.55;;;;;;;19.20;100.00;96265.66;5063495;28;20307;-47
2022/05/02 10:40:51;;;;;;;16.17;14.50;;;;;;;19.11;100.00;96272.25;5058116;28;20072;-53
2022/05/02 10:43:25;;;;;;;15.38;13.77;;;;;;;19.62;100.00;96271.69;5064581;28;20065;-49
2022/05/02 10:45:54;;;;;;;15.05;13.52;;;;;;;19.85;100.00;96265.91;5066811;28;20549;-52
2022/05/02 10:48:36;;;;;;;15.98;14.48;;;;;;;20.25;100.00;96264.00;5068381;28;20088;-50
2022/05/02 10:51:13;;;;;;;16.45;14.07;;;;;;;20.43;100.00;96257.97;5073068;28;20531;-52
2022/05/02 10:54:05;;;;;;;18.90;14.90;;;;;;;20.36;100.00;96257.16;5063786;28;20099;-48
2022/05/02 10:56:36;;;;;;;16.75;15.07;;;;;;;20.58;100.00;96247.84;5051429;28;20293;-55
2022/05/02 10:59:06;;;;;;;15.77;14.20;;;;;;;20.97;100.00;96255.91;5077090;28;20060;-47
2022/05/02 11:02:21;;;;;;;16.33;14.73;;;;;;;21.10;100.00;96242.44;5064974;28;20068;-48
2022/05/02 11:05:02;;;;;;;15.77;14.18;;;;;;;21.76;100.00;96246.50;5064278;28;20060;-50
2022/05/02 11:07:40;;;;;;;16.13;11.93;;;;;;;20.29;100.00;96241.13;5060745;28;20132;-53
2022/05/02 11:10:09;;;;;;;11.50;9.77;;;;;;;20.03;100.00;96239.34;5061463;28;20072;-53
2022/05/02 11:12:41;;;;;;;13.57;12.20;;;;;;;20.64;100.00;96243.47;5059126;28;20056;-51
2022/05/02 11:15:12;;;;;;;14.02;11.88;;;;;;;20.21;100.00;96233.31;5067008;28;20076;-51
2022/05/02 11:18:07;;;;;;;13.85;12.45;;;;;;;21.02;98.68;96227.41;5064439;28;20084;-54
2022/05/02 11:20:42;;;;;;;13.48;12.05;;;;;;;21.78;85.78;96236.34;5066232;28;20094;-47
2022/05/02 11:23:26;;;;;;;13.32;12.02;;;;;;;21.21;89.98;96230.19;5063566;28;20072;-54
2022/05/02 11:26:00;;;;;;;13.68;12.25;;;;;;;21.84;87.65;96231.97;5063813;28;20252;-50
2022/05/02 11:28:38;;;;;;;14.90;12.45;;;;;;;20.90;92.70;96222.97;5065121;28;20070;-50
2022/05/02 11:31:12;;;;;;;14.60;13.10;;;;;;;21.95;89.60;96223.19;5065577;28;20060;-54
2022/05/02 11:33:44;;;;;;;15.05;13.55;;;;;;;22.48;79.04;96209.19;5066580;28;20060;-54
2022/05/02 11:36:12;;;;;;;15.68;14.18;;;;;;;21.75;91.74;96215.34;5066532;28;20101;-52
2022/05/02 11:38:54;;;;;;;15.32;13.70;;;;;;;21.82;84.64;96208.03;5070701;28;20072;-54
2022/05/02 11:41:24;;;;;;;14.43;13.02;;;;;;;20.84;91.02;96220.09;5068882;28;20514;-50
2022/05/02 11:44:08;;;;;;;15.27;13.82;;;;;;;20.33;100.00;96214.75;5051771;28;20523;-52
2022/05/02 11:46:45;;;;;;;15.85;13.60;;;;;;;20.00;100.00;96204.16;5051958;28;20064;-55
2022/05/02 11:49:19;;;;;;;16.33;14.73;;;;;;;20.56;100.00;96214.28;5068037;28;20064;-59
2022/05/02 11:51:50;;;;;;;15.90;14.30;;;;;;;20.80;95.55;96204.66;5059622;28;20078;-55
2022/05/02 11:54:39;;;;;;;17.65;15.85;;;;;;;21.94;78.45;96194.69;5054578;28;20083;-48
2022/05/02 11:57:14;;;;;;;17.00;15.25;;;;;;;22.07;84.86;96191.88;5055352;28;20642;-54
2022/05/02 11:59:49;;;;;;;17.25;15.45;;;;;;;22.02;91.79;96191.69;5061716;28;20545;-55
2022/05/02 12:02:34;;;;;;;16.05;14.45;;;;;;;20.91;85.33;96189.75;5063348;28;20064;-47
2022/05/02 12:05:05;;;;;;;16.38;14.88;;;;;;;21.21;85.21;96192.63;5059352;28;20537;-54
2022/05/02 12:07:34;;;;;;;16.70;15.00;;;;;;;21.17;99.47;96191.44;5062661;28;20077;-52
2022/05/02 12:10:05;;;;;;;17.25;15.57;;;;;;;21.60;87.90;96188.00;5061134;28;20067;-53
2022/05/02 12:12:34;;;;;;;17.10;15.48;;;;;;;21.78;82.84;96182.66;5060707;28;20068;-52
2022/05/02 12:15:03;;;;;;;15.23;13.65;;;;;;;20.32;81.42;96184.47;5059942;28;20561;-54